Time;durP1;ratioP1;P1;durP2;ratioP2;P2;SDS_P1;SDS_P2;PMS_P1;PMS_P2;Temp;Humidity;BMP_temperature;BMP_pressure;BME280_temperature;BME280_humidity;BME280_pressure;Samples;Min_cycle;Max_cycle;Signal;HPM_P1;HPM_P2
2021/12/13 00:01:42;;;;;;;16.83;9.73;;;7.40;99.90;;;;;;4926429;29;20252;-73
2021/12/13 00:04:17;;;;;;;19.70;9.97;;;7.40;99.90;;;;;;4921892;29;20220;-73
2021/12/13 00:06:49;;;;;;;23.23;11.00;;;7.40;99.90;;;;;;4931811;29;20550;-71
2021/12/13 00:09:20;;;;;;;19.93;11.00;;;7.40;99.90;;;;;;4921821;29;20210;-71
2021/12/13 00:11:51;;;;;;;16.93;9.17;;;7.30;99.90;;;;;;4928725;29;20216;-73
2021/12/13 00:14:51;;;;;;;17.43;10.00;;;7.30;99.90;;;;;;4922517;29;20232;-71
2021/12/13 00:17:23;;;;;;;16.07;9.80;;;7.50;99.90;;;;;;4924383;29;20266;-71
2021/12/13 00:19:59;;;;;;;18.77;9.93;;;7.60;99.90;;;;;;4930054;29;20208;-72
2021/12/13 00:22:36;;;;;;;18.20;9.80;;;7.60;99.90;;;;;;4921341;29;20230;-71
2021/12/13 00:25:10;;;;;;;16.93;9.60;;;7.60;99.90;;;;;;4928128;29;20300;-70
2021/12/13 00:28:00;;;;;;;17.60;10.47;;;7.50;99.90;;;;;;4921652;29;20257;-71
2021/12/13 00:30:26;;;;;;;19.07;10.17;;;7.50;99.90;;;;;;4927218;29;20244;-71
2021/12/13 00:33:19;;;;;;;18.30;9.77;;;7.40;99.90;;;;;;4930710;29;20202;-72
2021/12/13 00:35:51;;;;;;;16.80;9.13;;;7.30;99.90;;;;;;4926887;29;20217;-72
2021/12/13 00:38:21;;;;;;;17.67;9.83;;;7.40;99.90;;;;;;4927892;29;20212;-71
2021/12/13 00:40:53;;;;;;;18.17;9.70;;;7.40;99.90;;;;;;4928764;29;20422;-72
2021/12/13 00:43:25;;;;;;;18.50;9.43;;;7.50;99.90;;;;;;4923968;29;20203;-73
2021/12/13 00:45:56;;;;;;;15.17;9.70;;;7.50;99.90;;;;;;4929050;29;20210;-71
2021/12/13 00:48:27;;;;;;;19.53;9.83;;;7.40;99.90;;;;;;4928029;29;20226;-71
2021/12/13 00:51:03;;;;;;;17.20;9.17;;;7.50;99.90;;;;;;4927012;29;20234;-70
2021/12/13 00:53:39;;;;;;;16.27;9.57;;;7.60;99.90;;;;;;4927554;29;20220;-72
2021/12/13 00:56:41;;;;;;;19.07;10.17;;;7.60;99.90;;;;;;4929441;29;20219;-71
2021/12/13 00:59:09;;;;;;;16.40;9.60;;;7.80;99.90;;;;;;4923394;29;20683;-71
2021/12/13 01:01:37;;;;;;;19.27;10.07;;;7.70;99.90;;;;;;4930446;29;20228;-71
2021/12/13 01:04:12;;;;;;;17.80;9.37;;;7.70;99.90;;;;;;4925531;29;20210;-71
2021/12/13 01:07:17;;;;;;;20.17;9.60;;;7.70;99.90;;;;;;4925686;29;20740;-71
2021/12/13 01:10:09;;;;;;;17.83;9.60;;;7.70;99.90;;;;;;4928690;29;20219;-71
2021/12/13 01:12:36;;;;;;;14.60;8.67;;;7.60;99.90;;;;;;4924003;29;20221;-71
2021/12/13 01:15:25;;;;;;;15.17;9.67;;;7.60;99.90;;;;;;4928817;29;20686;-71
2021/12/13 01:18:00;;;;;;;18.50;9.57;;;7.70;99.90;;;;;;4928863;29;20604;-71
2021/12/13 01:20:56;;;;;;;16.30;8.77;;;7.70;99.90;;;;;;4926281;29;20205;-71
2021/12/13 01:23:40;;;;;;;18.80;9.90;;;7.70;99.90;;;;;;4920907;29;20626;-73
2021/12/13 01:28:50;;;;;;;20.40;9.93;;;7.70;99.90;;;;;;4924788;29;20205;-72
2021/12/13 01:31:21;;;;;;;18.87;10.33;;;7.70;99.90;;;;;;4926903;29;20224;-69
2021/12/13 01:33:51;;;;;;;20.27;10.30;;;7.60;99.90;;;;;;4924714;29;20196;-71
2021/12/13 01:36:25;;;;;;;18.60;10.70;;;7.60;99.90;;;;;;4923529;29;20259;-73
2021/12/13 01:38:55;;;;;;;17.67;9.27;;;7.50;99.90;;;;;;4925482;29;20935;-71
2021/12/13 01:41:33;;;;;;;17.90;10.17;;;7.40;99.90;;;;;;4922176;29;20233;-71
2021/12/13 01:44:14;;;;;;;15.60;9.70;;;7.40;99.90;;;;;;4921696;29;20200;-74
2021/12/13 01:46:48;;;;;;;17.67;9.90;;;7.50;99.90;;;;;;4925837;29;20198;-72
2021/12/13 01:49:16;;;;;;;15.77;9.53;;;7.40;99.90;;;;;;4922319;29;20195;-71
2021/12/13 01:51:43;;;;;;;16.37;9.13;;;7.40;99.90;;;;;;4924380;29;20249;-70
2021/12/13 01:54:17;;;;;;;15.33;9.70;;;7.40;99.90;;;;;;4929333;29;20604;-71
2021/12/13 02:00:18;;;;;;;18.37;10.23;;;7.40;99.90;;;;;;4910398;29;20208;-74
2021/12/13 02:02:49;;;;;;;18.70;9.93;;;7.40;99.90;;;;;;4924862;29;20226;-72
2021/12/13 02:05:23;;;;;;;18.37;9.83;;;7.40;99.90;;;;;;4925204;29;20440;-70
2021/12/13 02:07:53;;;;;;;19.40;9.80;;;7.40;99.90;;;;;;4920455;29;20673;-71
2021/12/13 02:10:29;;;;;;;17.77;9.90;;;7.30;99.90;;;;;;4922700;29;20508;-70
2021/12/13 02:13:02;;;;;;;20.60;9.90;;;7.30;99.90;;;;;;4922553;29;20267;-71
2021/12/13 02:18:31;;;;;;;18.77;9.60;;;7.30;99.90;;;;;;4917643;29;20197;-71
2021/12/13 02:21:08;;;;;;;19.17;9.43;;;7.30;99.90;;;;;;4928612;29;20756;-71
2021/12/13 02:23:39;;;;;;;20.80;10.47;;;7.30;99.90;;;;;;4925055;29;20270;-72
2021/12/13 02:26:07;;;;;;;19.03;9.67;;;7.30;99.90;;;;;;4925593;29;20204;-73
2021/12/13 02:28:36;;;;;;;17.20;9.63;;;7.30;99.90;;;;;;4925432;29;20204;-71
2021/12/13 02:31:07;;;;;;;20.87;10.57;;;7.30;99.90;;;;;;4928770;29;20226;-71
2021/12/13 02:33:44;;;;;;;16.10;9.17;;;7.30;99.90;;;;;;4923729;29;20582;-71
2021/12/13 02:36:33;;;;;;;19.47;10.80;;;7.20;99.90;;;;;;4924811;29;20198;-71
2021/12/13 02:39:08;;;;;;;17.53;9.40;;;7.30;99.90;;;;;;4926481;29;20209;-71
2021/12/13 02:41:37;;;;;;;19.40;9.63;;;7.30;99.90;;;;;;4927144;29;20737;-72
2021/12/13 02:44:23;;;;;;;20.40;9.87;;;7.30;99.90;;;;;;4909594;29;20201;-71
2021/12/13 02:46:52;;;;;;;16.37;9.20;;;7.40;99.90;;;;;;4927572;29;20206;-74
2021/12/13 02:49:19;;;;;;;18.60;9.87;;;7.40;99.90;;;;;;4933012;29;20201;-71
2021/12/13 02:52:08;;;;;;;18.87;9.57;;;7.40;99.90;;;;;;4928286;29;20227;-71
2021/12/13 02:54:39;;;;;;;19.33;9.97;;;7.50;99.90;;;;;;4931345;29;20213;-71
2021/12/13 02:57:19;;;;;;;21.27;10.13;;;7.50;99.90;;;;;;4926683;29;20662;-72
2021/12/13 02:59:57;;;;;;;16.43;9.17;;;7.50;99.90;;;;;;4919963;29;20222;-73
2021/12/13 03:02:33;;;;;;;18.17;9.77;;;7.40;99.90;;;;;;4929650;29;20229;-73
2021/12/13 03:05:03;;;;;;;17.40;9.67;;;7.40;99.90;;;;;;4933126;29;20203;-71
2021/12/13 03:07:34;;;;;;;17.00;9.93;;;7.50;99.90;;;;;;4925374;29;20554;-73
2021/12/13 03:10:09;;;;;;;17.47;9.63;;;7.50;99.90;;;;;;4933999;29;20209;-72
2021/12/13 03:12:37;;;;;;;18.83;9.53;;;7.50;99.90;;;;;;4929855;29;20243;-73
2021/12/13 03:15:12;;;;;;;18.10;10.70;;;7.50;99.90;;;;;;4934147;29;20681;-71
2021/12/13 03:18:09;;;;;;;17.40;9.30;;;7.60;99.90;;;;;;4931926;29;20601;-71
2021/12/13 03:21:03;;;;;;;17.77;10.33;;;7.60;99.90;;;;;;4931696;29;20197;-71
2021/12/13 03:23:52;;;;;;;16.80;9.37;;;7.60;99.90;;;;;;4930836;29;20655;-73
2021/12/13 03:26:35;;;;;;;17.20;9.57;;;7.50;99.90;;;;;;4920706;29;20206;-72
2021/12/13 03:29:28;;;;;;;18.50;8.87;;;7.40;99.90;;;;;;4931761;29;20204;-71
2021/12/13 03:31:58;;;;;;;18.23;9.00;;;7.20;99.90;;;;;;4922510;29;20221;-73
2021/12/13 03:34:31;;;;;;;22.83;9.33;;;7.30;99.90;;;;;;4932752;29;20202;-72
2021/12/13 03:37:18;;;;;;;18.37;9.70;;;7.30;99.90;;;;;;4923418;29;20228;-70
2021/12/13 03:39:50;;;;;;;15.97;8.93;;;7.40;99.90;;;;;;4931073;29;20197;-73
2021/12/13 03:42:25;;;;;;;19.80;9.77;;;7.30;99.90;;;;;;4931076;29;20644;-71
2021/12/13 03:44:56;;;;;;;15.67;9.20;;;7.40;99.90;;;;;;4928349;29;20211;-70
2021/12/13 03:47:36;;;;;;;18.63;9.77;;;7.40;99.90;;;;;;4928441;29;20202;-74
2021/12/13 03:50:14;;;;;;;15.00;9.10;;;7.40;99.90;;;;;;4908630;29;20263;-69
2021/12/13 03:52:43;;;;;;;16.87;9.23;;;7.40;99.90;;;;;;4921397;29;20219;-70
2021/12/13 03:55:14;;;;;;;18.43;10.00;;;7.30;99.90;;;;;;4929462;29;20204;-71
2021/12/13 03:57:46;;;;;;;17.97;10.00;;;7.30;99.90;;;;;;4921950;29;20197;-73
2021/12/13 04:00:17;;;;;;;16.03;9.13;;;7.20;99.90;;;;;;4922543;29;20205;-71
2021/12/13 04:02:44;;;;;;;17.40;9.57;;;7.20;99.90;;;;;;4925260;29;20218;-72
2021/12/13 04:05:15;;;;;;;16.00;9.23;;;7.20;99.90;;;;;;4928881;29;20202;-71
2021/12/13 04:07:48;;;;;;;15.30;8.60;;;7.20;99.90;;;;;;4926467;29;20206;-73
2021/12/13 04:10:43;;;;;;;16.50;8.80;;;7.30;99.90;;;;;;4923506;29;20206;-71
2021/12/13 04:13:15;;;;;;;15.37;8.80;;;7.30;99.90;;;;;;4931881;29;20674;-71
2021/12/13 04:21:22;;;;;;;15.43;9.10;;;7.40;99.90;;;;;;4925718;29;20222;-71
2021/12/13 04:24:07;;;;;;;13.97;8.87;;;7.40;99.90;;;;;;4915423;29;20225;-71
2021/12/13 04:26:44;;;;;;;15.13;8.10;;;7.40;99.90;;;;;;4917554;29;20260;-71
2021/12/13 04:29:18;;;;;;;15.40;8.57;;;7.40;99.90;;;;;;4911947;29;20207;-71
2021/12/13 04:31:45;;;;;;;14.67;8.47;;;7.40;99.90;;;;;;4928160;29;20318;-71
2021/12/13 04:34:12;;;;;;;14.73;8.43;;;7.40;99.90;;;;;;4926283;29;20206;-71
2021/12/13 04:36:46;;;;;;;15.17;8.30;;;7.50;99.90;;;;;;4920966;29;20258;-71
2021/12/13 04:39:21;;;;;;;12.97;8.33;;;7.50;99.90;;;;;;4929475;29;20703;-73
2021/12/13 04:41:53;;;;;;;13.47;8.47;;;7.50;99.90;;;;;;4929658;29;20292;-70
2021/12/13 04:44:26;;;;;;;15.90;8.60;;;7.50;99.90;;;;;;4925590;29;20209;-71
2021/12/13 04:46:54;;;;;;;14.00;8.60;;;7.60;99.90;;;;;;4925060;29;20209;-73
2021/12/13 04:49:26;;;;;;;15.67;8.23;;;7.50;99.90;;;;;;4926907;29;20201;-73
2021/12/13 04:52:00;;;;;;;17.60;8.50;;;7.50;99.90;;;;;;4923460;29;20309;-71
2021/12/13 04:54:31;;;;;;;16.77;9.07;;;7.60;99.90;;;;;;4919866;29;20202;-71
2021/12/13 04:56:59;;;;;;;15.73;9.63;;;7.60;99.90;;;;;;4927300;29;20203;-73
2021/12/13 04:59:28;;;;;;;16.13;8.93;;;7.60;99.90;;;;;;4930245;29;20391;-74
2021/12/13 05:01:58;;;;;;;17.53;9.27;;;7.60;99.90;;;;;;4927261;29;20225;-72
2021/12/13 05:04:29;;;;;;;15.63;8.77;;;7.60;99.90;;;;;;4930224;29;20267;-72
2021/12/13 05:06:58;;;;;;;15.43;9.07;;;7.60;99.90;;;;;;4931919;29;20215;-71
2021/12/13 05:09:26;;;;;;;17.37;10.30;;;7.60;99.90;;;;;;4933795;29;20201;-71
2021/12/13 05:12:02;;;;;;;17.27;9.73;;;7.60;99.90;;;;;;4927343;29;20289;-71
2021/12/13 05:14:39;;;;;;;17.97;10.27;;;7.50;99.90;;;;;;4923635;29;21178;-71
2021/12/13 05:17:11;;;;;;;19.37;10.90;;;7.40;99.90;;;;;;4925484;29;20213;-71
2021/12/13 05:19:45;;;;;;;22.07;11.17;;;7.50;99.90;;;;;;4926845;29;20199;-71
2021/12/13 05:22:14;;;;;;;18.23;9.80;;;7.60;99.90;;;;;;4929404;29;20273;-74
2021/12/13 05:24:47;;;;;;;19.13;10.27;;;7.50;99.90;;;;;;4926859;29;20625;-71
2021/12/13 05:27:24;;;;;;;19.20;9.83;;;7.50;99.90;;;;;;4924856;29;20212;-71
2021/12/13 05:29:52;;;;;;;18.90;9.70;;;7.40;99.90;;;;;;4922987;29;20213;-73
2021/12/13 05:32:34;;;;;;;18.30;10.00;;;7.40;99.90;;;;;;4928806;29;20225;-71
2021/12/13 05:35:12;;;;;;;19.37;9.43;;;7.40;99.90;;;;;;4926222;29;20198;-71
2021/12/13 05:37:46;;;;;;;19.60;10.07;;;7.50;99.90;;;;;;4928192;29;20644;-71
2021/12/13 05:40:23;;;;;;;17.77;9.60;;;7.60;99.90;;;;;;4930956;29;20259;-71
2021/12/13 05:42:57;;;;;;;19.77;10.83;;;7.60;99.90;;;;;;4929856;29;20250;-73
2021/12/13 05:45:36;;;;;;;19.90;9.67;;;7.50;99.90;;;;;;4932431;29;20205;-71
2021/12/13 05:48:13;;;;;;;20.93;10.43;;;7.60;99.90;;;;;;4912873;29;20206;-72
2021/12/13 05:50:53;;;;;;;19.63;9.60;;;7.50;99.90;;;;;;4927256;29;20213;-71
2021/12/13 05:53:24;;;;;;;15.67;8.97;;;7.60;99.90;;;;;;4932392;29;20278;-71
2021/12/13 05:55:55;;;;;;;16.70;9.70;;;7.60;99.90;;;;;;4926392;29;20683;-71
2021/12/13 05:58:48;;;;;;;16.50;9.53;;;7.60;99.90;;;;;;4928482;29;20202;-71
2021/12/13 06:01:28;;;;;;;16.20;9.27;;;7.60;99.90;;;;;;4910102;29;20241;-73
2021/12/13 06:04:07;;;;;;;14.97;8.77;;;7.60;99.90;;;;;;4921094;29;20273;-73
2021/12/13 06:06:42;;;;;;;17.00;9.00;;;7.50;99.90;;;;;;4923308;29;20205;-71
2021/12/13 06:09:10;;;;;;;19.13;9.43;;;7.50;99.90;;;;;;4925493;29;20213;-71
2021/12/13 06:11:39;;;;;;;18.87;11.33;;;7.50;99.90;;;;;;4928535;29;20232;-71
2021/12/13 06:14:18;;;;;;;18.30;10.00;;;7.60;99.90;;;;;;4921120;29;20313;-71
2021/12/13 06:16:48;;;;;;;15.50;9.20;;;7.70;99.90;;;;;;4931180;29;20212;-71
2021/12/13 06:19:35;;;;;;;18.50;9.27;;;7.60;99.90;;;;;;4914308;29;20555;-72
2021/12/13 06:22:10;;;;;;;13.93;8.30;;;7.60;99.90;;;;;;4922317;29;20230;-71
2021/12/13 06:24:41;;;;;;;18.67;10.77;;;7.60;99.90;;;;;;4925452;29;20204;-74
2021/12/13 06:27:25;;;;;;;21.37;10.13;;;7.60;99.90;;;;;;4918090;29;20202;-71
2021/12/13 06:29:51;;;;;;;16.73;9.80;;;7.70;99.90;;;;;;4929485;29;20213;-70
2021/12/13 06:32:32;;;;;;;31.63;13.37;;;7.60;99.90;;;;;;4929910;29;20222;-71
2021/12/13 06:34:59;;;;;;;26.50;11.20;;;7.70;99.90;;;;;;4926506;29;20210;-70
2021/12/13 06:37:35;;;;;;;18.97;9.67;;;7.80;99.90;;;;;;4926808;29;20206;-72
2021/12/13 06:40:26;;;;;;;21.23;10.03;;;7.70;99.90;;;;;;4929165;29;20605;-69
2021/12/13 06:42:54;;;;;;;22.27;9.87;;;7.60;99.90;;;;;;4931681;29;20219;-71
2021/12/13 06:45:34;;;;;;;16.00;9.43;;;7.60;99.90;;;;;;4923657;29;20198;-70
2021/12/13 06:48:04;;;;;;;17.33;9.07;;;7.60;99.90;;;;;;4932522;29;20200;-73
2021/12/13 06:50:36;;;;;;;20.63;9.83;;;7.60;99.90;;;;;;4934208;29;20264;-70
2021/12/13 06:53:13;;;;;;;21.93;9.57;;;7.60;99.90;;;;;;4926099;29;20229;-73
2021/12/13 06:55:41;;;;;;;22.73;9.70;;;7.70;99.90;;;;;;4927044;29;20197;-72
2021/12/13 06:58:21;;;;;;;21.50;8.70;;;7.70;99.90;;;;;;4930552;29;20230;-71
2021/12/13 07:00:51;;;;;;;23.00;9.60;;;7.60;99.90;;;;;;4928671;28;20241;-73
2021/12/13 07:03:32;;;;;;;24.23;9.33;;;7.60;99.90;;;;;;4928952;29;20645;-72
2021/12/13 07:06:03;;;;;;;28.00;9.87;;;7.60;99.90;;;;;;4923948;29;20225;-71
2021/12/13 07:08:36;;;;;;;17.70;9.10;;;7.70;99.90;;;;;;4928344;29;20206;-71
2021/12/13 07:11:12;;;;;;;19.30;9.03;;;7.70;99.90;;;;;;4927933;29;20221;-72
2021/12/13 07:13:47;;;;;;;25.87;9.27;;;7.60;99.90;;;;;;4924141;29;20209;-72
2021/12/13 07:16:25;;;;;;;22.47;9.20;;;7.60;99.90;;;;;;4926395;29;20209;-73
2021/12/13 07:19:02;;;;;;;19.10;9.30;;;7.60;99.90;;;;;;4927430;29;20292;-72
2021/12/13 07:21:34;;;;;;;18.63;8.37;;;7.60;99.90;;;;;;4925523;29;20233;-74
2021/12/13 07:24:09;;;;;;;16.53;9.20;;;7.70;99.90;;;;;;4928809;29;20206;-71
2021/12/13 07:26:40;;;;;;;18.40;9.17;;;7.80;99.90;;;;;;4927593;29;20206;-70
2021/12/13 07:29:08;;;;;;;15.67;8.73;;;7.70;99.90;;;;;;4927588;29;20218;-72
2021/12/13 07:31:37;;;;;;;18.47;9.17;;;7.60;99.90;;;;;;4927710;29;20323;-74
2021/12/13 07:34:22;;;;;;;20.33;9.10;;;7.60;99.90;;;;;;4925853;29;20687;-74
2021/12/13 07:36:55;;;;;;;16.83;9.07;;;7.60;99.90;;;;;;4920502;29;20564;-72
2021/12/13 07:39:26;;;;;;;15.43;8.87;;;7.60;99.90;;;;;;4918932;29;20207;-72
2021/12/13 07:41:59;;;;;;;15.57;8.30;;;7.70;99.90;;;;;;4925456;29;20244;-72
2021/12/13 07:44:31;;;;;;;20.07;8.70;;;7.70;99.90;;;;;;4919631;29;20268;-74
2021/12/13 07:47:05;;;;;;;16.33;8.83;;;7.70;99.90;;;;;;4926128;29;20216;-73
2021/12/13 07:49:35;;;;;;;17.60;9.00;;;7.60;99.90;;;;;;4926314;29;20217;-74
2021/12/13 07:52:05;;;;;;;14.37;8.13;;;7.60;99.90;;;;;;4925247;29;20294;-71
2021/12/13 07:54:40;;;;;;;18.23;8.57;;;7.70;99.90;;;;;;4923060;29;20225;-73
2021/12/13 07:57:30;;;;;;;16.30;8.70;;;7.60;99.90;;;;;;4922721;29;20656;-71
2021/12/13 07:59:58;;;;;;;18.93;8.60;;;7.60;99.90;;;;;;4922183;29;20204;-72
2021/12/13 08:02:31;;;;;;;17.27;8.30;;;7.60;99.90;;;;;;4913685;29;20222;-71
2021/12/13 08:05:23;;;;;;;14.80;8.30;;;7.60;99.90;;;;;;4922948;29;21854;-73
2021/12/13 08:07:59;;;;;;;15.00;8.40;;;7.70;99.90;;;;;;4927547;29;20214;-72
2021/12/13 08:10:31;;;;;;;13.47;7.60;;;7.60;99.90;;;;;;4925462;29;20211;-73
2021/12/13 08:13:13;;;;;;;19.97;9.30;;;7.40;99.90;;;;;;4926392;29;20251;-71
2021/12/13 08:15:50;;;;;;;19.83;8.53;;;7.50;99.90;;;;;;4922987;29;20204;-73
2021/12/13 08:18:22;;;;;;;19.30;9.03;;;7.50;99.90;;;;;;4921640;29;20298;-71
2021/12/13 08:21:03;;;;;;;15.50;8.40;;;7.60;99.90;;;;;;4924344;29;20228;-74
2021/12/13 08:23:41;;;;;;;14.47;8.07;;;7.70;99.90;;;;;;4924011;29;20206;-73
2021/12/13 08:26:13;;;;;;;14.67;7.90;;;7.80;99.90;;;;;;4912747;29;20213;-72
2021/12/13 08:28:53;;;;;;;17.40;8.90;;;7.70;99.90;;;;;;4921552;29;20217;-70
2021/12/13 08:31:25;;;;;;;15.83;8.30;;;7.80;99.90;;;;;;4923939;29;20225;-74
2021/12/13 08:34:03;;;;;;;19.73;8.53;;;7.80;99.90;;;;;;4919666;29;20270;-75
2021/12/13 08:36:38;;;;;;;17.80;8.33;;;7.90;99.90;;;;;;4915752;29;21442;-73
2021/12/13 08:39:12;;;;;;;18.27;8.93;;;7.90;99.90;;;;;;4923167;29;20196;-73
2021/12/13 08:42:16;;;;;;;19.33;9.67;;;7.90;99.90;;;;;;4915828;29;20301;-73
2021/12/13 08:44:56;;;;;;;19.00;9.57;;;8.00;99.90;;;;;;4871692;29;20698;-72
2021/12/13 08:47:31;;;;;;;18.77;9.27;;;8.00;99.90;;;;;;4913800;29;20201;-69
2021/12/13 08:50:05;;;;;;;14.77;8.73;;;8.00;99.90;;;;;;4924388;29;20193;-70
2021/12/13 08:52:36;;;;;;;16.33;8.60;;;8.10;99.90;;;;;;4926557;29;20233;-71
2021/12/13 08:55:11;;;;;;;13.37;8.23;;;8.10;99.90;;;;;;4923683;29;20230;-72
2021/12/13 08:57:49;;;;;;;17.03;8.57;;;8.20;99.90;;;;;;4923152;29;20211;-71
2021/12/13 09:00:20;;;;;;;15.60;8.43;;;8.30;99.90;;;;;;4925232;29;20420;-71
2021/12/13 09:03:11;;;;;;;14.47;8.37;;;8.40;99.90;;;;;;4922643;29;20226;-75
2021/12/13 09:06:22;;;;;;;16.43;8.60;;;8.50;99.90;;;;;;4923620;29;20210;-73
2021/12/13 09:09:04;;;;;;;15.03;7.90;;;8.60;99.90;;;;;;4916633;29;20207;-73
2021/12/13 09:11:37;;;;;;;15.37;8.00;;;8.70;99.90;;;;;;4922243;29;20739;-71
2021/12/13 09:14:20;;;;;;;17.13;8.70;;;8.70;99.90;;;;;;4925395;29;20233;-71
2021/12/13 09:17:12;;;;;;;16.93;9.20;;;8.80;99.90;;;;;;4921872;29;20209;-73
2021/12/13 09:19:51;;;;;;;13.57;7.63;;;8.80;99.90;;;;;;4916955;29;20211;-73
2021/12/13 09:22:26;;;;;;;12.57;7.67;;;9.00;99.90;;;;;;4924254;29;20210;-73
2021/12/13 09:25:33;;;;;;;15.40;8.07;;;9.00;99.90;;;;;;4923679;29;20290;-71
2021/12/13 09:28:03;;;;;;;14.17;7.80;;;8.90;99.90;;;;;;4920739;29;20217;-73
2021/12/13 09:30:30;;;;;;;11.80;7.33;;;9.00;99.90;;;;;;4920759;29;20560;-70
2021/12/13 09:33:10;;;;;;;13.63;7.67;;;9.00;99.90;;;;;;4917519;29;20226;-72
2021/12/13 09:36:00;;;;;;;15.17;7.87;;;9.10;99.90;;;;;;4921661;29;20203;-71
2021/12/13 09:38:29;;;;;;;13.53;7.63;;;9.30;99.90;;;;;;4918303;29;20794;-70
2021/12/13 09:40:59;;;;;;;14.03;7.73;;;9.50;99.90;;;;;;4921232;29;20231;-72
2021/12/13 09:44:10;;;;;;;15.17;8.07;;;9.60;99.90;;;;;;4918218;29;20742;-73
2021/12/13 09:46:46;;;;;;;15.10;7.77;;;9.60;99.90;;;;;;4919978;29;20226;-74
2021/12/13 09:49:22;;;;;;;17.33;8.27;;;9.70;99.90;;;;;;4922236;29;20199;-68
2021/12/13 09:51:53;;;;;;;15.27;8.43;;;9.80;99.90;;;;;;4924764;29;20218;-73
2021/12/13 09:54:28;;;;;;;15.80;8.70;;;9.80;99.90;;;;;;4921460;29;20685;-72
2021/12/13 09:56:59;;;;;;;21.07;9.00;;;9.80;99.90;;;;;;4926664;29;20330;-71
2021/12/13 09:59:31;;;;;;;18.73;8.03;;;9.90;99.90;;;;;;4927386;29;20226;-73
2021/12/13 10:02:00;;;;;;;15.97;8.13;;;10.00;99.90;;;;;;4924757;29;20229;-73
2021/12/13 10:04:39;;;;;;;15.53;8.30;;;10.20;99.90;;;;;;4925894;29;20605;-72
2021/12/13 10:07:09;;;;;;;16.77;8.90;;;10.20;99.90;;;;;;4927375;29;20215;-72
2021/12/13 10:09:47;;;;;;;14.43;8.13;;;10.40;99.90;;;;;;4924098;29;20217;-72
2021/12/13 10:12:35;;;;;;;13.30;8.17;;;10.60;99.90;;;;;;4928602;29;20700;-73
2021/12/13 10:15:11;;;;;;;12.13;6.90;;;10.70;99.90;;;;;;4925997;29;20238;-71
2021/12/13 10:17:41;;;;;;;14.80;7.67;;;10.80;99.90;;;;;;4927324;29;20205;-73
2021/12/13 10:20:22;;;;;;;15.53;8.17;;;10.80;99.90;;;;;;4922717;29;20756;-72
2021/12/13 10:22:53;;;;;;;16.97;8.50;;;11.00;99.90;;;;;;4926602;29;20345;-71
2021/12/13 10:25:31;;;;;;;16.73;9.47;;;11.00;99.90;;;;;;4922806;29;20199;-74
2021/12/13 10:28:06;;;;;;;16.80;9.57;;;11.00;99.90;;;;;;4925478;29;20214;-73
2021/12/13 10:30:41;;;;;;;15.47;8.97;;;11.10;99.90;;;;;;4924164;29;20211;-73
2021/12/13 10:33:14;;;;;;;15.30;8.97;;;11.20;99.90;;;;;;4925275;29;20730;-73
2021/12/13 10:35:42;;;;;;;17.63;8.57;;;11.30;99.90;;;;;;4929459;29;20588;-74
2021/12/13 10:38:17;;;;;;;16.67;8.50;;;11.40;99.90;;;;;;4928520;29;20214;-72
2021/12/13 10:40:55;;;;;;;18.47;9.13;;;11.60;99.90;;;;;;4922540;29;20214;-72
2021/12/13 10:43:43;;;;;;;16.53;9.13;;;11.50;99.90;;;;;;4923793;29;20250;-74
2021/12/13 10:46:34;;;;;;;17.67;9.27;;;11.60;99.90;;;;;;4924769;29;20279;-72
2021/12/13 10:49:10;;;;;;;14.87;8.70;;;11.60;99.90;;;;;;4926337;29;20360;-74
2021/12/13 10:51:40;;;;;;;16.73;8.77;;;11.60;99.90;;;;;;4923516;29;20772;-73
2021/12/13 10:54:14;;;;;;;18.10;9.07;;;11.60;99.90;;;;;;4928037;29;20236;-72
2021/12/13 10:56:44;;;;;;;14.27;8.33;;;11.70;99.90;;;;;;4927134;29;20202;-71
2021/12/13 10:59:17;;;;;;;16.87;8.70;;;11.70;99.90;;;;;;4925017;29;20203;-71
2021/12/13 11:01:50;;;;;;;17.67;10.10;;;11.80;99.90;;;;;;4927226;29;20459;-71
2021/12/13 11:04:27;;;;;;;18.87;10.13;;;11.80;99.90;;;;;;4926055;29;20235;-73
2021/12/13 11:06:54;;;;;;;19.20;9.70;;;11.80;99.90;;;;;;4925645;29;20982;-70
2021/12/13 11:09:24;;;;;;;15.57;9.27;;;12.00;99.90;;;;;;4927478;29;20216;-74
2021/12/13 11:11:59;;;;;;;15.07;8.77;;;12.00;99.90;;;;;;4934020;29;20230;-75
2021/12/13 11:14:27;;;;;;;17.60;10.20;;;12.20;99.90;;;;;;4926198;29;20317;-72
2021/12/13 11:17:01;;;;;;;17.60;9.20;;;12.10;99.90;;;;;;4928911;29;20210;-74
2021/12/13 11:19:32;;;;;;;15.93;8.93;;;12.10;99.90;;;;;;4927134;29;20544;-74
2021/12/13 11:22:06;;;;;;;17.07;9.50;;;12.10;99.90;;;;;;4919769;29;20258;-76
2021/12/13 11:24:36;;;;;;;18.43;9.47;;;12.10;99.90;;;;;;4924683;29;20264;-75
2021/12/13 11:27:10;;;;;;;21.20;10.10;;;12.20;99.90;;;;;;4917019;29;21042;-77
2021/12/13 11:29:41;;;;;;;18.00;10.13;;;12.20;99.90;;;;;;4918153;29;20268;-75
2021/12/13 11:32:39;;;;;;;19.77;9.83;;;12.20;99.90;;;;;;4922816;29;20234;-71
2021/12/13 11:35:11;;;;;;;16.47;9.70;;;12.10;99.90;;;;;;4926812;29;20196;-71
2021/12/13 11:38:05;;;;;;;21.33;10.33;;;12.10;99.90;;;;;;4929880;29;20202;-74
2021/12/13 11:40:50;;;;;;;18.73;10.20;;;12.10;99.90;;;;;;4930828;29;20199;-72
2021/12/13 11:43:54;;;;;;;16.73;10.27;;;12.10;99.90;;;;;;4925422;29;20296;-74
2021/12/13 11:46:59;;;;;;;15.80;10.13;;;12.10;99.90;;;;;;4929625;29;20217;-75
2021/12/13 11:49:53;;;;;;;16.17;8.97;;;12.00;99.90;;;;;;4933348;29;20236;-72
2021/12/13 11:52:58;;;;;;;17.40;10.03;;;12.10;99.90;;;;;;4932374;29;20253;-75
2021/12/13 11:56:03;;;;;;;16.77;10.33;;;12.10;99.90;;;;;;4931648;29;20203;-72
2021/12/13 11:58:59;;;;;;;18.97;10.23;;;12.10;99.90;;;;;;4929147;29;20203;-74
2021/12/13 12:02:00;;;;;;;18.10;10.17;;;12.00;99.90;;;;;;4932535;29;20240;-71
2021/12/13 12:05:05;;;;;;;15.83;9.73;;;12.00;99.90;;;;;;4928541;29;20645;-70
2021/12/13 12:08:06;;;;;;;19.30;10.07;;;12.00;99.90;;;;;;4921486;29;20215;-75
2021/12/13 12:11:11;;;;;;;18.57;9.57;;;12.10;99.90;;;;;;4927739;29;20306;-72
2021/12/13 12:14:08;;;;;;;16.70;9.20;;;12.10;99.90;;;;;;4924600;29;20232;-74
2021/12/13 12:16:41;;;;;;;18.77;10.43;;;11.70;99.90;;;;;;4928202;29;20312;-72
2021/12/13 12:19:22;;;;;;;16.00;9.97;;;11.70;99.90;;;;;;4925835;29;20230;-70
2021/12/13 12:21:48;;;;;;;20.40;10.73;;;11.80;99.90;;;;;;4923584;29;20477;-75
2021/12/13 12:24:24;;;;;;;16.97;10.70;;;11.90;99.90;;;;;;4925568;29;20211;-73
2021/12/13 12:27:16;;;;;;;18.57;10.27;;;11.90;99.90;;;;;;4926649;29;20525;-72
2021/12/13 12:29:48;;;;;;;19.30;10.67;;;11.90;99.90;;;;;;4915171;29;20208;-74
2021/12/13 12:32:23;;;;;;;16.33;10.27;;;12.00;99.90;;;;;;4927894;29;20232;-71
2021/12/13 12:35:04;;;;;;;23.53;10.77;;;12.00;99.90;;;;;;4927187;29;20213;-71
2021/12/13 12:37:55;;;;;;;14.70;9.10;;;11.70;99.90;;;;;;4919159;29;20207;-70
2021/12/13 12:40:27;;;;;;;17.97;10.23;;;11.80;99.90;;;;;;4923155;29;20191;-71
2021/12/13 12:42:58;;;;;;;16.63;10.07;;;11.80;99.90;;;;;;4925904;29;20219;-71
2021/12/13 12:45:25;;;;;;;20.70;9.23;;;11.80;99.90;;;;;;4924466;29;20229;-71
2021/12/13 12:48:00;;;;;;;16.80;9.27;;;11.90;99.90;;;;;;4921284;29;20206;-73
2021/12/13 12:50:32;;;;;;;17.17;10.00;;;12.00;99.90;;;;;;4922796;29;20671;-70
2021/12/13 12:53:04;;;;;;;15.13;9.13;;;12.10;99.90;;;;;;4923529;29;20719;-72
2021/12/13 12:55:37;;;;;;;18.67;9.47;;;12.10;99.90;;;;;;4924203;29;20193;-73
2021/12/13 12:58:14;;;;;;;14.57;8.10;;;12.20;99.90;;;;;;4924786;29;20203;-73
2021/12/13 13:00:43;;;;;;;14.37;8.43;;;12.10;99.90;;;;;;4922930;29;20352;-74
2021/12/13 13:03:21;;;;;;;16.27;8.70;;;12.20;99.90;;;;;;4918455;29;20237;-78
2021/12/13 13:05:49;;;;;;;19.93;9.30;;;12.20;99.90;;;;;;4926878;29;20267;-75
2021/12/13 13:08:30;;;;;;;15.77;9.40;;;12.10;99.90;;;;;;4923880;29;20208;-77
2021/12/13 13:13:45;;;;;;;19.17;9.13;;;11.80;99.90;;;;;;4922235;29;20222;-73
2021/12/13 13:16:15;;;;;;;16.13;8.93;;;11.50;99.90;;;;;;4922115;29;21704;-70
2021/12/13 13:18:42;;;;;;;16.10;9.00;;;11.50;99.90;;;;;;4925140;29;20267;-70
2021/12/13 13:21:10;;;;;;;14.60;8.40;;;11.40;99.90;;;;;;4922750;29;20229;-69
2021/12/13 13:23:49;;;;;;;18.63;9.00;;;11.40;99.90;;;;;;4920731;29;20221;-72
2021/12/13 13:26:18;;;;;;;15.83;8.57;;;11.10;99.90;;;;;;4922271;29;20246;-71
2021/12/13 13:28:52;;;;;;;15.77;8.30;;;11.00;99.90;;;;;;4922108;29;20243;-73
2021/12/13 13:31:22;;;;;;;14.50;8.13;;;11.00;99.90;;;;;;4922934;29;20713;-71
2021/12/13 13:34:03;;;;;;;16.70;9.07;;;10.90;99.90;;;;;;4922053;29;20224;-73
2021/12/13 13:36:40;;;;;;;15.83;9.50;;;10.80;99.90;;;;;;4917123;29;20205;-71
2021/12/13 13:39:14;;;;;;;15.43;9.13;;;10.60;99.90;;;;;;4917122;29;20205;-69
2021/12/13 13:41:42;;;;;;;13.33;8.57;;;10.60;99.90;;;;;;4924379;29;20226;-70
2021/12/13 13:44:16;;;;;;;18.93;9.50;;;10.70;99.90;;;;;;4924958;29;20214;-70
2021/12/13 13:46:44;;;;;;;14.73;9.53;;;10.80;99.90;;;;;;4920273;29;20208;-70
2021/12/13 13:49:18;;;;;;;15.70;9.03;;;10.80;99.90;;;;;;4919405;29;20214;-71